Nettie, West Virginia
Current Conditions -  °F | °C
As of 2:15 PM on Monday 20 Oct 2014 (Local Time) from KLWB Reporting Station
Clear Clear  
Wind Chill: 61°   Ceiling: Unl
Heat Index: 61°   Visibility: 10mi
Dew Point: 39°   Wind: 7mph
Humidity: 44%   Direction: 240°WSW
Pressure: 30"   Gusts: NA
Location:  38.22°N, 80.69°W
Report Text: KLWB 201815Z AUTO 24006KT 10SM CLR 16/04 A3000 RMK AO2 T01610037
Loading
Personal Weather Stations






























Interactive Weather Map
Tropical Storm Tracking
New forecast layout! Learn more

10-Day Weather Forecast

Advertisements
Track Severe Weather on mobile